sensor_id;sensor_type;location;lat;lon;timestamp;P1;durP1;ratioP1;P2;durP2;ratioP2
21430;SDS011;10876;49.038;10.608;2024-03-23T00:54:33;5.63;;;3.03;;
21430;SDS011;10876;49.038;10.608;2024-03-23T00:56:59;4.72;;;2.67;;
21430;SDS011;10876;49.038;10.608;2024-03-23T00:59:24;4.63;;;2.78;;
21430;SDS011;10876;49.038;10.608;2024-03-23T01:01:53;5.60;;;3.55;;
21430;SDS011;10876;49.038;10.608;2024-03-23T01:04:18;5.22;;;3.72;;
21430;SDS011;10876;49.038;10.608;2024-03-23T01:06:45;7.07;;;2.95;;
21430;SDS011;10876;49.038;10.608;2024-03-23T01:09:10;5.88;;;3.63;;
21430;SDS011;10876;49.038;10.608;2024-03-23T01:11:38;2.42;;;2.20;;
21430;SDS011;10876;49.038;10.608;2024-03-23T01:14:04;4.43;;;2.40;;
21430;SDS011;10876;49.038;10.608;2024-03-23T01:16:31;2.95;;;1.90;;
21430;SDS011;10876;49.038;10.608;2024-03-23T01:18:57;6.43;;;3.22;;
21430;SDS011;10876;49.038;10.608;2024-03-23T01:21:23;4.95;;;3.17;;
21430;SDS011;10876;49.038;10.608;2024-03-23T01:23:49;4.82;;;2.88;;
21430;SDS011;10876;49.038;10.608;2024-03-23T01:26:15;5.65;;;3.45;;
21430;SDS011;10876;49.038;10.608;2024-03-23T01:28:42;6.35;;;3.30;;
21430;SDS011;10876;49.038;10.608;2024-03-23T01:31:08;11.88;;;4.05;;
21430;SDS011;10876;49.038;10.608;2024-03-23T01:33:35;7.18;;;4.70;;
21430;SDS011;10876;49.038;10.608;2024-03-23T01:36:01;6.18;;;4.20;;
21430;SDS011;10876;49.038;10.608;2024-03-23T01:38:27;5.70;;;3.50;;
21430;SDS011;10876;49.038;10.608;2024-03-23T01:40:56;6.40;;;3.80;;
21430;SDS011;10876;49.038;10.608;2024-03-23T01:43:21;9.70;;;4.47;;
21430;SDS011;10876;49.038;10.608;2024-03-23T01:45:49;7.28;;;3.67;;
21430;SDS011;10876;49.038;10.608;2024-03-23T01:48:15;4.85;;;3.35;;
21430;SDS011;10876;49.038;10.608;2024-03-23T01:50:41;7.05;;;4.22;;
21430;SDS011;10876;49.038;10.608;2024-03-23T01:53:07;4.65;;;3.33;;
21430;SDS011;10876;49.038;10.608;2024-03-23T01:55:33;7.15;;;3.42;;
21430;SDS011;10876;49.038;10.608;2024-03-23T01:57:59;4.28;;;3.05;;
21430;SDS011;10876;49.038;10.608;2024-03-23T02:00:25;5.72;;;3.22;;
21430;SDS011;10876;49.038;10.608;2024-03-23T02:02:54;5.68;;;3.45;;
21430;SDS011;10876;49.038;10.608;2024-03-23T02:05:21;4.93;;;3.40;;
21430;SDS011;10876;49.038;10.608;2024-03-23T02:07:47;16.25;;;3.03;;
21430;SDS011;10876;49.038;10.608;2024-03-23T02:10:13;5.05;;;3.15;;
21430;SDS011;10876;49.038;10.608;2024-03-23T02:12:39;7.07;;;3.05;;
21430;SDS011;10876;49.038;10.608;2024-03-23T02:15:05;5.68;;;3.30;;
21430;SDS011;10876;49.038;10.608;2024-03-23T02:17:33;4.95;;;3.00;;
21430;SDS011;10876;49.038;10.608;2024-03-23T02:20:02;3.53;;;2.50;;
21430;SDS011;10876;49.038;10.608;2024-03-23T02:22:35;7.75;;;2.80;;
21430;SDS011;10876;49.038;10.608;2024-03-23T02:25:03;4.40;;;3.00;;
21430;SDS011;10876;49.038;10.608;2024-03-23T02:27:28;3.90;;;2.22;;
21430;SDS011;10876;49.038;10.608;2024-03-23T03:11:10;15.60;;;5.05;;
21430;SDS011;10876;49.038;10.608;2024-03-23T03:13:36;4.95;;;3.33;;
21430;SDS011;10876;49.038;10.608;2024-03-23T03:16:02;9.80;;;4.20;;
21430;SDS011;10876;49.038;10.608;2024-03-23T03:18:29;7.28;;;4.35;;
21430;SDS011;10876;49.038;10.608;2024-03-23T03:20:54;6.35;;;3.92;;
21430;SDS011;10876;49.038;10.608;2024-03-23T03:23:21;8.75;;;4.00;;
21430;SDS011;10876;49.038;10.608;2024-03-23T03:25:46;7.18;;;4.03;;
21430;SDS011;10876;49.038;10.608;2024-03-23T03:28:14;6.85;;;5.00;;
21430;SDS011;10876;49.038;10.608;2024-03-23T03:30:40;9.63;;;4.55;;
21430;SDS011;10876;49.038;10.608;2024-03-23T03:33:06;4.65;;;3.42;;
21430;SDS011;10876;49.038;10.608;2024-03-23T03:35:32;6.35;;;3.88;;
21430;SDS011;10876;49.038;10.608;2024-03-23T03:37:58;4.32;;;3.17;;
21430;SDS011;10876;49.038;10.608;2024-03-23T03:40:24;13.50;;;3.83;;
21430;SDS011;10876;49.038;10.608;2024-03-23T03:42:50;4.60;;;3.05;;
21430;SDS011;10876;49.038;10.608;2024-03-23T03:45:17;4.22;;;2.75;;
21430;SDS011;10876;49.038;10.608;2024-03-23T03:47:44;5.57;;;2.75;;
21430;SDS011;10876;49.038;10.608;2024-03-23T03:50:10;5.97;;;2.58;;
21430;SDS011;10876;49.038;10.608;2024-03-23T03:52:36;4.82;;;3.10;;
21430;SDS011;10876;49.038;10.608;2024-03-23T03:55:02;6.30;;;2.85;;
21430;SDS011;10876;49.038;10.608;2024-03-23T03:57:28;7.07;;;3.00;;
21430;SDS011;10876;49.038;10.608;2024-03-23T03:59:54;3.08;;;2.50;;
21430;SDS011;10876;49.038;10.608;2024-03-23T04:02:21;3.88;;;2.42;;
21430;SDS011;10876;49.038;10.608;2024-03-23T04:04:47;5.50;;;2.22;;
21430;SDS011;10876;49.038;10.608;2024-03-23T04:07:13;2.60;;;1.90;;
21430;SDS011;10876;49.038;10.608;2024-03-23T04:09:39;5.50;;;2.03;;
21430;SDS011;10876;49.038;10.608;2024-03-23T04:12:06;2.42;;;1.77;;
21430;SDS011;10876;49.038;10.608;2024-03-23T04:14:31;5.47;;;1.55;;
21430;SDS011;10876;49.038;10.608;2024-03-23T04:16:58;5.10;;;2.42;;
21430;SDS011;10876;49.038;10.608;2024-03-23T04:19:24;2.30;;;1.55;;
21430;SDS011;10876;49.038;10.608;2024-03-23T04:21:51;3.63;;;2.10;;
21430;SDS011;10876;49.038;10.608;2024-03-23T04:24:16;4.25;;;1.88;;
21430;SDS011;10876;49.038;10.608;2024-03-23T04:26:46;4.97;;;2.15;;
21430;SDS011;10876;49.038;10.608;2024-03-23T04:29:12;3.40;;;1.77;;
21430;SDS011;10876;49.038;10.608;2024-03-23T04:31:38;1.98;;;1.70;;
21430;SDS011;10876;49.038;10.608;2024-03-23T04:34:04;4.57;;;2.15;;
21430;SDS011;10876;49.038;10.608;2024-03-23T04:36:32;2.92;;;1.63;;
21430;SDS011;10876;49.038;10.608;2024-03-23T04:38:58;2.15;;;2.00;;
21430;SDS011;10876;49.038;10.608;2024-03-23T04:41:25;2.97;;;1.98;;
21430;SDS011;10876;49.038;10.608;2024-03-23T04:43:52;3.60;;;1.88;;
21430;SDS011;10876;49.038;10.608;2024-03-23T04:46:17;2.38;;;1.40;;
21430;SDS011;10876;49.038;10.608;2024-03-23T04:48:43;2.95;;;1.98;;
21430;SDS011;10876;49.038;10.608;2024-03-23T04:51:10;5.78;;;1.55;;
21430;SDS011;10876;49.038;10.608;2024-03-23T04:53:38;2.47;;;1.77;;
21430;SDS011;10876;49.038;10.608;2024-03-23T04:56:05;2.70;;;1.60;;
21430;SDS011;10876;49.038;10.608;2024-03-23T04:58:31;1.88;;;1.55;;
21430;SDS011;10876;49.038;10.608;2024-03-23T05:00:57;2.38;;;2.17;;
21430;SDS011;10876;49.038;10.608;2024-03-23T05:03:23;3.80;;;2.17;;
21430;SDS011;10876;49.038;10.608;2024-03-23T05:05:49;2.53;;;1.92;;
21430;SDS011;10876;49.038;10.608;2024-03-23T05:08:15;2.22;;;1.98;;
21430;SDS011;10876;49.038;10.608;2024-03-23T05:10:42;3.67;;;1.30;;
21430;SDS011;10876;49.038;10.608;2024-03-23T05:13:09;1.70;;;1.52;;
21430;SDS011;10876;49.038;10.608;2024-03-23T05:15:34;4.15;;;1.90;;
21430;SDS011;10876;49.038;10.608;2024-03-23T05:18:01;2.95;;;1.63;;
21430;SDS011;10876;49.038;10.608;2024-03-23T05:20:27;2.08;;;1.58;;
21430;SDS011;10876;49.038;10.608;2024-03-23T05:22:54;1.98;;;1.42;;
21430;SDS011;10876;49.038;10.608;2024-03-23T05:25:19;2.33;;;1.52;;
21430;SDS011;10876;49.038;10.608;2024-03-23T05:27:48;2.20;;;1.73;;
21430;SDS011;10876;49.038;10.608;2024-03-23T05:30:13;1.95;;;1.75;;
21430;SDS011;10876;49.038;10.608;2024-03-23T05:32:40;2.25;;;1.63;;
21430;SDS011;10876;49.038;10.608;2024-03-23T05:35:07;2.15;;;1.92;;
21430;SDS011;10876;49.038;10.608;2024-03-23T05:37:33;3.50;;;2.08;;
21430;SDS011;10876;49.038;10.608;2024-03-23T05:39:59;2.40;;;1.77;;
21430;SDS011;10876;49.038;10.608;2024-03-23T05:42:26;3.00;;;1.67;;
21430;SDS011;10876;49.038;10.608;2024-03-23T05:44:53;4.07;;;2.33;;
21430;SDS011;10876;49.038;10.608;2024-03-23T05:47:19;3.88;;;2.15;;
21430;SDS011;10876;49.038;10.608;2024-03-23T05:49:45;7.13;;;4.03;;
21430;SDS011;10876;49.038;10.608;2024-03-23T05:52:12;3.90;;;2.00;;
21430;SDS011;10876;49.038;10.608;2024-03-23T05:54:38;2.85;;;2.42;;
21430;SDS011;10876;49.038;10.608;2024-03-23T05:57:04;3.28;;;1.75;;
21430;SDS011;10876;49.038;10.608;2024-03-23T05:59:32;3.33;;;1.58;;
21430;SDS011;10876;49.038;10.608;2024-03-23T06:02:00;3.17;;;1.70;;
21430;SDS011;10876;49.038;10.608;2024-03-23T06:04:25;2.05;;;1.58;;
21430;SDS011;10876;49.038;10.608;2024-03-23T06:06:52;1.98;;;1.45;;
21430;SDS011;10876;49.038;10.608;2024-03-23T06:09:17;3.25;;;1.40;;
21430;SDS011;10876;49.038;10.608;2024-03-23T06:11:44;2.33;;;1.75;;
21430;SDS011;10876;49.038;10.608;2024-03-23T06:14:09;2.03;;;1.40;;
21430;SDS011;10876;49.038;10.608;2024-03-23T06:16:36;1.67;;;1.58;;
21430;SDS011;10876;49.038;10.608;2024-03-23T06:19:03;3.58;;;2.03;;
21430;SDS011;10876;49.038;10.608;2024-03-23T06:21:31;1.90;;;1.67;;
21430;SDS011;10876;49.038;10.608;2024-03-23T06:23:57;3.60;;;1.88;;
21430;SDS011;10876;49.038;10.608;2024-03-23T06:26:23;2.15;;;1.90;;
21430;SDS011;10876;49.038;10.608;2024-03-23T06:28:49;6.45;;;2.15;;
21430;SDS011;10876;49.038;10.608;2024-03-23T06:31:15;2.38;;;1.85;;
21430;SDS011;10876;49.038;10.608;2024-03-23T06:33:41;5.95;;;2.30;;
21430;SDS011;10876;49.038;10.608;2024-03-23T06:36:10;3.67;;;2.60;;
21430;SDS011;10876;49.038;10.608;2024-03-23T06:38:35;11.25;;;3.42;;
21430;SDS011;10876;49.038;10.608;2024-03-23T06:41:03;6.18;;;3.88;;
21430;SDS011;10876;49.038;10.608;2024-03-23T06:43:28;4.32;;;3.35;;
21430;SDS011;10876;49.038;10.608;2024-03-23T06:45:55;5.45;;;3.13;;
21430;SDS011;10876;49.038;10.608;2024-03-23T06:48:20;4.78;;;2.88;;
21430;SDS011;10876;49.038;10.608;2024-03-23T06:50:47;6.43;;;3.22;;
21430;SDS011;10876;49.038;10.608;2024-03-23T06:53:14;7.90;;;3.55;;
21430;SDS011;10876;49.038;10.608;2024-03-23T06:55:40;3.92;;;2.13;;
21430;SDS011;10876;49.038;10.608;2024-03-23T06:58:06;6.38;;;3.38;;
21430;SDS011;10876;49.038;10.608;2024-03-23T07:00:32;6.85;;;3.00;;
21430;SDS011;10876;49.038;10.608;2024-03-23T07:02:58;5.05;;;2.38;;
21430;SDS011;10876;49.038;10.608;2024-03-23T07:05:24;3.40;;;2.22;;
21430;SDS011;10876;49.038;10.608;2024-03-23T07:07:50;3.22;;;1.70;;
21430;SDS011;10876;49.038;10.608;2024-03-23T07:10:17;3.75;;;2.33;;
21430;SDS011;10876;49.038;10.608;2024-03-23T07:12:43;3.45;;;2.35;;
21430;SDS011;10876;49.038;10.608;2024-03-23T07:15:09;3.83;;;2.47;;
21430;SDS011;10876;49.038;10.608;2024-03-23T07:17:35;3.78;;;2.10;;
21430;SDS011;10876;49.038;10.608;2024-03-23T07:20:01;3.63;;;1.73;;
21430;SDS011;10876;49.038;10.608;2024-03-23T07:22:29;11.35;;;2.63;;
21430;SDS011;10876;49.038;10.608;2024-03-23T07:24:55;2.85;;;2.13;;
21430;SDS011;10876;49.038;10.608;2024-03-23T07:27:22;3.60;;;2.65;;
21430;SDS011;10876;49.038;10.608;2024-03-23T07:29:48;3.33;;;2.08;;
21430;SDS011;10876;49.038;10.608;2024-03-23T07:32:14;3.00;;;2.28;;
21430;SDS011;10876;49.038;10.608;2024-03-23T07:34:41;6.38;;;3.45;;
21430;SDS011;10876;49.038;10.608;2024-03-23T07:37:08;2.58;;;2.03;;
21430;SDS011;10876;49.038;10.608;2024-03-23T07:39:35;8.70;;;1.98;;
21430;SDS011;10876;49.038;10.608;2024-03-23T07:42:00;5.65;;;2.00;;
21430;SDS011;10876;49.038;10.608;2024-03-23T07:44:28;5.40;;;2.35;;
21430;SDS011;10876;49.038;10.608;2024-03-23T07:46:53;5.55;;;2.92;;
21430;SDS011;10876;49.038;10.608;2024-03-23T07:49:20;10.93;;;5.07;;
21430;SDS011;10876;49.038;10.608;2024-03-23T07:51:45;4.55;;;1.88;;
21430;SDS011;10876;49.038;10.608;2024-03-23T07:54:12;2.90;;;1.83;;
21430;SDS011;10876;49.038;10.608;2024-03-23T07:56:37;3.78;;;1.67;;
21430;SDS011;10876;49.038;10.608;2024-03-23T07:59:03;2.60;;;1.73;;
21430;SDS011;10876;49.038;10.608;2024-03-23T08:01:30;4.47;;;2.08;;
21430;SDS011;10876;49.038;10.608;2024-03-23T08:03:57;3.08;;;1.85;;
21430;SDS011;10876;49.038;10.608;2024-03-23T08:06:22;3.67;;;1.45;;
21430;SDS011;10876;49.038;10.608;2024-03-23T08:08:52;4.57;;;1.55;;
21430;SDS011;10876;49.038;10.608;2024-03-23T08:11:24;3.40;;;2.05;;
21430;SDS011;10876;49.038;10.608;2024-03-23T08:13:51;1.88;;;1.25;;
21430;SDS011;10876;49.038;10.608;2024-03-23T08:16:16;2.88;;;2.10;;
21430;SDS011;10876;49.038;10.608;2024-03-23T08:18:44;3.83;;;2.00;;
21430;SDS011;10876;49.038;10.608;2024-03-23T08:21:09;2.83;;;1.90;;
21430;SDS011;10876;49.038;10.608;2024-03-23T08:23:36;4.22;;;1.33;;
21430;SDS011;10876;49.038;10.608;2024-03-23T08:26:03;2.22;;;1.42;;
21430;SDS011;10876;49.038;10.608;2024-03-23T08:28:30;1.83;;;1.40;;
21430;SDS011;10876;49.038;10.608;2024-03-23T08:30:55;1.88;;;1.38;;
21430;SDS011;10876;49.038;10.608;2024-03-23T08:33:22;3.13;;;1.67;;
21430;SDS011;10876;49.038;10.608;2024-03-23T08:35:56;1.50;;;1.08;;
21430;SDS011;10876;49.038;10.608;2024-03-23T08:38:23;1.10;;;0.95;;
21430;SDS011;10876;49.038;10.608;2024-03-23T08:40:53;1.00;;;0.90;;
21430;SDS011;10876;49.038;10.608;2024-03-23T08:43:22;0.60;;;0.60;;
21430;SDS011;10876;49.038;10.608;2024-03-23T08:45:47;1.08;;;0.85;;
21430;SDS011;10876;49.038;10.608;2024-03-23T08:48:14;1.10;;;0.70;;
21430;SDS011;10876;49.038;10.608;2024-03-23T08:50:39;1.08;;;0.85;;
21430;SDS011;10876;49.038;10.608;2024-03-23T08:53:07;0.60;;;0.60;;
21430;SDS011;10876;49.038;10.608;2024-03-23T08:55:33;0.50;;;0.50;;
21430;SDS011;10876;49.038;10.608;2024-03-23T08:57:59;1.50;;;1.10;;
21430;SDS011;10876;49.038;10.608;2024-03-23T09:00:25;0.68;;;0.68;;
21430;SDS011;10876;49.038;10.608;2024-03-23T09:02:52;0.95;;;0.85;;
21430;SDS011;10876;49.038;10.608;2024-03-23T09:05:18;0.65;;;0.60;;
21430;SDS011;10876;49.038;10.608;2024-03-23T09:07:45;4.10;;;1.02;;
21430;SDS011;10876;49.038;10.608;2024-03-23T09:10:12;0.80;;;0.80;;
21430;SDS011;10876;49.038;10.608;2024-03-23T09:12:38;1.05;;;0.90;;
21430;SDS011;10876;49.038;10.608;2024-03-23T09:15:04;0.55;;;0.52;;
21430;SDS011;10876;49.038;10.608;2024-03-23T09:17:30;0.82;;;0.60;;
21430;SDS011;10876;49.038;10.608;2024-03-23T09:19:56;0.60;;;0.60;;
21430;SDS011;10876;49.038;10.608;2024-03-23T09:22:23;0.65;;;0.55;;
21430;SDS011;10876;49.038;10.608;2024-03-23T09:24:48;0.63;;;0.63;;
21430;SDS011;10876;49.038;10.608;2024-03-23T09:27:16;1.02;;;0.95;;
21430;SDS011;10876;49.038;10.608;2024-03-23T09:29:41;1.00;;;0.70;;
21430;SDS011;10876;49.038;10.608;2024-03-23T09:32:08;1.02;;;0.82;;
21430;SDS011;10876;49.038;10.608;2024-03-23T09:34:34;0.57;;;0.57;;
21430;SDS011;10876;49.038;10.608;2024-03-23T09:37:00;0.75;;;0.60;;
21430;SDS011;10876;49.038;10.608;2024-03-23T09:39:26;2.65;;;0.70;;
21430;SDS011;10876;49.038;10.608;2024-03-23T09:41:56;0.93;;;0.73;;
21430;SDS011;10876;49.038;10.608;2024-03-23T09:44:24;0.75;;;0.60;;
21430;SDS011;10876;49.038;10.608;2024-03-23T09:46:51;1.00;;;0.90;;
21430;SDS011;10876;49.038;10.608;2024-03-23T09:49:17;1.00;;;1.00;;
21430;SDS011;10876;49.038;10.608;2024-03-23T09:51:43;1.08;;;0.60;;
21430;SDS011;10876;49.038;10.608;2024-03-23T09:54:09;0.65;;;0.65;;
21430;SDS011;10876;49.038;10.608;2024-03-23T09:56:35;0.60;;;0.60;;
21430;SDS011;10876;49.038;10.608;2024-03-23T09:59:01;1.70;;;0.73;;
21430;SDS011;10876;49.038;10.608;2024-03-23T10:01:28;1.00;;;0.90;;
21430;SDS011;10876;49.038;10.608;2024-03-23T10:03:55;0.52;;;0.52;;
21430;SDS011;10876;49.038;10.608;2024-03-23T10:06:21;0.90;;;0.80;;
21430;SDS011;10876;49.038;10.608;2024-03-23T10:08:49;1.27;;;0.90;;
21430;SDS011;10876;49.038;10.608;2024-03-23T10:11:15;1.50;;;0.80;;
21430;SDS011;10876;49.038;10.608;2024-03-23T10:13:42;0.50;;;0.50;;
21430;SDS011;10876;49.038;10.608;2024-03-23T10:16:08;2.25;;;1.20;;
21430;SDS011;10876;49.038;10.608;2024-03-23T10:18:38;2.25;;;0.88;;
21430;SDS011;10876;49.038;10.608;2024-03-23T10:21:07;1.48;;;1.08;;
21430;SDS011;10876;49.038;10.608;2024-03-23T10:23:36;0.80;;;0.80;;
21430;SDS011;10876;49.038;10.608;2024-03-23T10:26:12;1.10;;;1.00;;
21430;SDS011;10876;49.038;10.608;2024-03-23T10:28:49;1.13;;;0.82;;
21430;SDS011;10876;49.038;10.608;2024-03-23T10:31:15;2.72;;;1.17;;
21430;SDS011;10876;49.038;10.608;2024-03-23T10:33:45;0.80;;;0.80;;
21430;SDS011;10876;49.038;10.608;2024-03-23T10:36:11;1.50;;;1.20;;
21430;SDS011;10876;49.038;10.608;2024-03-23T10:38:37;1.10;;;1.00;;
21430;SDS011;10876;49.038;10.608;2024-03-23T10:41:04;0.85;;;0.80;;
21430;SDS011;10876;49.038;10.608;2024-03-23T10:43:30;2.83;;;1.58;;
21430;SDS011;10876;49.038;10.608;2024-03-23T10:45:58;1.40;;;1.02;;
21430;SDS011;10876;49.038;10.608;2024-03-23T10:48:24;3.72;;;1.25;;
21430;SDS011;10876;49.038;10.608;2024-03-23T10:50:51;1.05;;;0.80;;
21430;SDS011;10876;49.038;10.608;2024-03-23T10:53:18;1.80;;;1.38;;
21430;SDS011;10876;49.038;10.608;2024-03-23T10:55:44;1.40;;;1.20;;
21430;SDS011;10876;49.038;10.608;2024-03-23T10:58:11;4.82;;;1.45;;
21430;SDS011;10876;49.038;10.608;2024-03-23T11:00:37;3.03;;;1.55;;
21430;SDS011;10876;49.038;10.608;2024-03-23T11:05:46;1.65;;;1.40;;
21430;SDS011;10876;49.038;10.608;2024-03-23T11:08:16;1.75;;;1.25;;
21430;SDS011;10876;49.038;10.608;2024-03-23T11:10:54;4.60;;;1.52;;
21430;SDS011;10876;49.038;10.608;2024-03-23T11:13:37;2.55;;;1.38;;
21430;SDS011;10876;49.038;10.608;2024-03-23T11:16:12;1.40;;;1.30;;
21430;SDS011;10876;49.038;10.608;2024-03-23T11:18:39;4.00;;;1.45;;
21430;SDS011;10876;49.038;10.608;2024-03-23T11:21:05;2.50;;;1.15;;
21430;SDS011;10876;49.038;10.608;2024-03-23T11:23:34;2.55;;;0.90;;
21430;SDS011;10876;49.038;10.608;2024-03-23T11:25:59;2.03;;;0.82;;
21430;SDS011;10876;49.038;10.608;2024-03-23T11:28:25;4.07;;;1.30;;
21430;SDS011;10876;49.038;10.608;2024-03-23T11:30:51;1.75;;;1.38;;
21430;SDS011;10876;49.038;10.608;2024-03-23T11:33:17;1.75;;;1.23;;
21430;SDS011;10876;49.038;10.608;2024-03-23T11:35:43;5.13;;;1.95;;
21430;SDS011;10876;49.038;10.608;2024-03-23T11:38:10;2.17;;;1.23;;
21430;SDS011;10876;49.038;10.608;2024-03-23T11:40:37;3.25;;;1.50;;
21430;SDS011;10876;49.038;10.608;2024-03-23T11:43:04;1.88;;;1.30;;
21430;SDS011;10876;49.038;10.608;2024-03-23T11:45:33;1.35;;;0.82;;
21430;SDS011;10876;49.038;10.608;2024-03-23T11:48:04;1.63;;;1.20;;
21430;SDS011;10876;49.038;10.608;2024-03-23T11:50:30;3.42;;;1.00;;
21430;SDS011;10876;49.038;10.608;2024-03-23T11:53:06;2.55;;;1.08;;
21430;SDS011;10876;49.038;10.608;2024-03-23T11:55:39;3.63;;;1.08;;
21430;SDS011;10876;49.038;10.608;2024-03-23T11:58:06;2.78;;;0.90;;
21430;SDS011;10876;49.038;10.608;2024-03-23T12:00:32;3.13;;;1.80;;
21430;SDS011;10876;49.038;10.608;2024-03-23T12:02:59;1.15;;;1.00;;
21430;SDS011;10876;49.038;10.608;2024-03-23T12:05:25;2.05;;;1.17;;
21430;SDS011;10876;49.038;10.608;2024-03-23T12:07:52;3.53;;;1.55;;
21430;SDS011;10876;49.038;10.608;2024-03-23T12:10:18;2.30;;;1.15;;
21430;SDS011;10876;49.038;10.608;2024-03-23T12:12:51;1.92;;;1.00;;
21430;SDS011;10876;49.038;10.608;2024-03-23T12:15:22;1.00;;;0.98;;
21430;SDS011;10876;49.038;10.608;2024-03-23T12:17:49;5.05;;;1.38;;
21430;SDS011;10876;49.038;10.608;2024-03-23T12:20:14;3.67;;;1.50;;
21430;SDS011;10876;49.038;10.608;2024-03-23T12:22:41;1.63;;;1.52;;
21430;SDS011;10876;49.038;10.608;2024-03-23T12:25:07;1.23;;;1.10;;
21430;SDS011;10876;49.038;10.608;2024-03-23T12:27:33;1.90;;;1.15;;
21430;SDS011;10876;49.038;10.608;2024-03-23T12:30:01;1.20;;;1.10;;
21430;SDS011;10876;49.038;10.608;2024-03-23T12:32:27;1.25;;;1.00;;
21430;SDS011;10876;49.038;10.608;2024-03-23T12:34:53;1.88;;;1.00;;
21430;SDS011;10876;49.038;10.608;2024-03-23T12:37:19;1.85;;;1.25;;
21430;SDS011;10876;49.038;10.608;2024-03-23T12:39:45;4.70;;;2.10;;
21430;SDS011;10876;49.038;10.608;2024-03-23T12:42:11;2.92;;;1.80;;
21430;SDS011;10876;49.038;10.608;2024-03-23T12:44:37;1.60;;;1.25;;
21430;SDS011;10876;49.038;10.608;2024-03-23T12:47:04;1.58;;;0.93;;
21430;SDS011;10876;49.038;10.608;2024-03-23T12:49:31;3.70;;;0.93;;
21430;SDS011;10876;49.038;10.608;2024-03-23T12:51:56;1.77;;;1.13;;
21430;SDS011;10876;49.038;10.608;2024-03-23T12:54:24;3.72;;;1.85;;
21430;SDS011;10876;49.038;10.608;2024-03-23T12:56:50;1.50;;;1.02;;
21430;SDS011;10876;49.038;10.608;2024-03-23T12:59:16;2.08;;;1.20;;
21430;SDS011;10876;49.038;10.608;2024-03-23T13:01:43;2.22;;;1.75;;
21430;SDS011;10876;49.038;10.608;2024-03-23T13:04:11;3.80;;;1.50;;
21430;SDS011;10876;49.038;10.608;2024-03-23T13:06:37;2.75;;;1.20;;
21430;SDS011;10876;49.038;10.608;2024-03-23T13:09:04;5.38;;;1.58;;
21430;SDS011;10876;49.038;10.608;2024-03-23T13:11:30;1.52;;;0.73;;
21430;SDS011;10876;49.038;10.608;2024-03-23T13:13:56;3.40;;;0.95;;
21430;SDS011;10876;49.038;10.608;2024-03-23T13:16:22;1.33;;;0.80;;
21430;SDS011;10876;49.038;10.608;2024-03-23T13:18:48;2.13;;;1.25;;
21430;SDS011;10876;49.038;10.608;2024-03-23T13:36:47;0.70;;;0.55;;
21430;SDS011;10876;49.038;10.608;2024-03-23T13:39:14;2.90;;;1.08;;
21430;SDS011;10876;49.038;10.608;2024-03-23T13:41:40;3.55;;;1.05;;
21430;SDS011;10876;49.038;10.608;2024-03-23T13:44:07;2.10;;;0.95;;
21430;SDS011;10876;49.038;10.608;2024-03-23T13:46:34;1.73;;;0.77;;
21430;SDS011;10876;49.038;10.608;2024-03-23T13:49:00;1.48;;;0.68;;
21430;SDS011;10876;49.038;10.608;2024-03-23T13:51:26;1.10;;;0.75;;
21430;SDS011;10876;49.038;10.608;2024-03-23T13:53:54;2.35;;;1.20;;
21430;SDS011;10876;49.038;10.608;2024-03-23T13:56:20;3.50;;;0.80;;
21430;SDS011;10876;49.038;10.608;2024-03-23T13:58:47;1.98;;;1.27;;
21430;SDS011;10876;49.038;10.608;2024-03-23T14:01:14;3.67;;;1.58;;
21430;SDS011;10876;49.038;10.608;2024-03-23T14:03:40;6.13;;;1.95;;
21430;SDS011;10876;49.038;10.608;2024-03-23T14:06:06;2.05;;;0.80;;
21430;SDS011;10876;49.038;10.608;2024-03-23T14:08:33;0.98;;;0.90;;
21430;SDS011;10876;49.038;10.608;2024-03-23T14:11:02;3.85;;;0.90;;
21430;SDS011;10876;49.038;10.608;2024-03-23T14:13:29;3.50;;;0.80;;
21430;SDS011;10876;49.038;10.608;2024-03-23T14:15:54;3.20;;;1.45;;
21430;SDS011;10876;49.038;10.608;2024-03-23T14:18:21;3.92;;;1.40;;
21430;SDS011;10876;49.038;10.608;2024-03-23T14:20:47;0.98;;;0.98;;
21430;SDS011;10876;49.038;10.608;2024-03-23T14:23:14;0.98;;;0.85;;
21430;SDS011;10876;49.038;10.608;2024-03-23T14:25:39;2.20;;;1.13;;
21430;SDS011;10876;49.038;10.608;2024-03-23T14:28:07;3.17;;;0.95;;
21430;SDS011;10876;49.038;10.608;2024-03-23T14:30:39;1.45;;;0.80;;
21430;SDS011;10876;49.038;10.608;2024-03-23T14:33:05;1.65;;;0.63;;
21430;SDS011;10876;49.038;10.608;2024-03-23T14:35:30;1.60;;;0.90;;
21430;SDS011;10876;49.038;10.608;2024-03-23T14:37:58;3.47;;;0.73;;
21430;SDS011;10876;49.038;10.608;2024-03-23T14:40:23;2.22;;;1.33;;
21430;SDS011;10876;49.038;10.608;2024-03-23T14:42:51;1.30;;;0.65;;
21430;SDS011;10876;49.038;10.608;2024-03-23T14:45:18;1.75;;;1.27;;
21430;SDS011;10876;49.038;10.608;2024-03-23T14:47:44;0.98;;;0.88;;
21430;SDS011;10876;49.038;10.608;2024-03-23T14:50:10;0.80;;;0.63;;
21430;SDS011;10876;49.038;10.608;2024-03-23T14:52:40;1.63;;;1.23;;
21430;SDS011;10876;49.038;10.608;2024-03-23T14:55:06;2.42;;;0.50;;
21430;SDS011;10876;49.038;10.608;2024-03-23T14:57:33;0.40;;;0.40;;
21430;SDS011;10876;49.038;10.608;2024-03-23T14:59:59;2.10;;;0.60;;
21430;SDS011;10876;49.038;10.608;2024-03-23T15:02:28;3.25;;;1.15;;
21430;SDS011;10876;49.038;10.608;2024-03-23T15:04:55;3.10;;;1.40;;
21430;SDS011;10876;49.038;10.608;2024-03-23T15:07:21;1.13;;;0.93;;
21430;SDS011;10876;49.038;10.608;2024-03-23T15:09:47;1.20;;;1.10;;
21430;SDS011;10876;49.038;10.608;2024-03-23T15:12:13;1.65;;;1.30;;
21430;SDS011;10876;49.038;10.608;2024-03-23T15:14:39;1.13;;;0.95;;
21430;SDS011;10876;49.038;10.608;2024-03-23T15:17:05;1.75;;;0.73;;
21430;SDS011;10876;49.038;10.608;2024-03-23T15:19:33;0.80;;;0.80;;
21430;SDS011;10876;49.038;10.608;2024-03-23T15:22:00;1.35;;;0.68;;
21430;SDS011;10876;49.038;10.608;2024-03-23T15:24:25;3.80;;;1.10;;
21430;SDS011;10876;49.038;10.608;2024-03-23T15:26:52;1.13;;;0.77;;
21430;SDS011;10876;49.038;10.608;2024-03-23T15:29:17;1.40;;;0.70;;
21430;SDS011;10876;49.038;10.608;2024-03-23T15:31:44;2.63;;;1.23;;
21430;SDS011;10876;49.038;10.608;2024-03-23T15:34:11;0.68;;;0.65;;
21430;SDS011;10876;49.038;10.608;2024-03-23T15:36:39;0.90;;;0.57;;
21430;SDS011;10876;49.038;10.608;2024-03-23T15:39:12;1.40;;;1.10;;
21430;SDS011;10876;49.038;10.608;2024-03-23T15:41:45;7.28;;;0.90;;
21430;SDS011;10876;49.038;10.608;2024-03-23T15:44:11;0.77;;;0.77;;
21430;SDS011;10876;49.038;10.608;2024-03-23T15:46:37;3.15;;;1.20;;
21430;SDS011;10876;49.038;10.608;2024-03-23T15:49:03;0.40;;;0.40;;
21430;SDS011;10876;49.038;10.608;2024-03-23T15:51:30;1.58;;;0.88;;
21430;SDS011;10876;49.038;10.608;2024-03-23T15:53:59;2.05;;;0.80;;
21430;SDS011;10876;49.038;10.608;2024-03-23T15:56:26;2.22;;;1.27;;
21430;SDS011;10876;49.038;10.608;2024-03-23T15:58:51;0.70;;;0.70;;
21430;SDS011;10876;49.038;10.608;2024-03-23T16:01:19;0.40;;;0.40;;
21430;SDS011;10876;49.038;10.608;2024-03-23T16:06:14;1.20;;;1.08;;
21430;SDS011;10876;49.038;10.608;2024-03-23T16:08:39;1.02;;;0.77;;
21430;SDS011;10876;49.038;10.608;2024-03-23T16:11:08;3.50;;;0.73;;
21430;SDS011;10876;49.038;10.608;2024-03-23T16:13:33;0.75;;;0.75;;
21430;SDS011;10876;49.038;10.608;2024-03-23T16:16:01;1.17;;;0.98;;
21430;SDS011;10876;49.038;10.608;2024-03-23T16:18:28;1.13;;;1.02;;
21430;SDS011;10876;49.038;10.608;2024-03-23T16:20:55;8.50;;;1.50;;
21430;SDS011;10876;49.038;10.608;2024-03-23T16:23:21;1.00;;;0.93;;
21430;SDS011;10876;49.038;10.608;2024-03-23T16:25:48;1.05;;;0.85;;